Time;durP1;ratioP1;P1;durP2;ratioP2;P2;SDS_P1;SDS_P2;PMS_P1;PMS_P2;Temp;Humidity;BMP_temperature;BMP_pressure;BME280_temperature;BME280_humidity;BME280_pressure;Samples;Min_cycle;Max_cycle;Signal;HPM_P1;HPM_P2
2023/04/30 00:01:35;;;;;;;19.77;9.50;;;;;;;;;;5035617;28;20618;-75
2023/04/30 00:04:01;;;;;;;13.70;9.43;;;;;;;;;;5035661;28;20641;-76
2023/04/30 00:06:26;;;;;;;15.13;9.90;;;;;;;;;;5035639;28;20630;-74
2023/04/30 00:08:51;;;;;;;13.15;8.98;;;;;;;;;;5035904;28;20630;-74
2023/04/30 00:11:16;;;;;;;12.90;8.90;;;;;;;;;;5035631;28;20029;-74
2023/04/30 00:13:42;;;;;;;16.60;9.70;;;;;;;;;;5035841;28;20304;-75
2023/04/30 00:16:07;;;;;;;14.20;9.80;;;;;;;;;;5035983;28;20263;-75
2023/04/30 00:18:32;;;;;;;16.50;10.02;;;;;;;;;;5035719;28;20025;-75
2023/04/30 00:20:58;;;;;;;19.08;10.10;;;;;;;;;;5035771;28;20388;-74
2023/04/30 00:23:23;;;;;;;15.93;9.30;;;;;;;;;;5035523;28;20044;-75
2023/04/30 00:25:48;;;;;;;18.23;9.43;;;;;;;;;;5036292;28;20029;-75
2023/04/30 00:28:13;;;;;;;14.77;9.30;;;;;;;;;;5034210;28;20286;-75
2023/04/30 00:30:38;;;;;;;14.53;9.30;;;;;;;;;;5035516;28;20255;-75
2023/04/30 00:33:04;;;;;;;11.47;8.67;;;;;;;;;;5035388;28;20257;-75
2023/04/30 00:35:29;;;;;;;13.52;9.63;;;;;;;;;;5035955;28;20254;-75
2023/04/30 00:37:54;;;;;;;17.10;9.63;;;;;;;;;;5035421;28;20025;-75
2023/04/30 00:40:20;;;;;;;13.70;9.40;;;;;;;;;;5035459;28;20112;-75
2023/04/30 00:42:45;;;;;;;15.35;8.75;;;;;;;;;;5035604;28;20294;-75
2023/04/30 00:45:10;;;;;;;14.30;9.00;;;;;;;;;;5035713;28;20025;-75
2023/04/30 00:47:36;;;;;;;13.25;8.07;;;;;;;;;;5035198;28;20108;-75
2023/04/30 00:50:01;;;;;;;13.95;7.63;;;;;;;;;;5035431;28;20060;-75
2023/04/30 00:52:26;;;;;;;11.90;7.72;;;;;;;;;;5035058;28;20100;-75
2023/04/30 00:54:53;;;;;;;10.38;7.18;;;;;;;;;;5035581;28;20021;-74
2023/04/30 00:57:19;;;;;;;12.45;7.88;;;;;;;;;;5035040;28;20099;-74
2023/04/30 00:59:45;;;;;;;10.18;6.50;;;;;;;;;;5034643;28;20025;-75
2023/04/30 01:02:11;;;;;;;10.20;5.40;;;;;;;;;;5035308;28;20059;-74
2023/04/30 01:04:37;;;;;;;8.40;5.13;;;;;;;;;;5034573;28;20025;-75
2023/04/30 01:07:03;;;;;;;7.75;4.30;;;;;;;;;;5032685;28;20033;-75
2023/04/30 01:09:28;;;;;;;7.32;4.40;;;;;;;;;;5033604;28;20030;-75
2023/04/30 01:12:08;;;;;;;7.88;4.43;;;;;;;;;;5034746;28;20044;-74
2023/04/30 01:14:58;;;;;;;7.65;4.10;;;;;;;;;;5033636;28;20061;-74
2023/04/30 01:17:33;;;;;;;7.18;4.35;;;;;;;;;;5034702;28;20021;-75
2023/04/30 01:20:00;;;;;;;8.65;4.63;;;;;;;;;;5034811;28;20033;-75
2023/04/30 01:22:25;;;;;;;7.68;4.38;;;;;;;;;;5033658;28;20045;-73
2023/04/30 01:25:13;;;;;;;6.70;4.20;;;;;;;;;;5034427;28;20503;-75
2023/04/30 01:28:01;;;;;;;8.57;4.70;;;;;;;;;;5034725;28;20087;-75
2023/04/30 01:30:28;;;;;;;7.25;4.70;;;;;;;;;;5034795;28;20028;-75
2023/04/30 01:32:54;;;;;;;6.68;4.35;;;;;;;;;;5034342;28;20507;-75
2023/04/30 01:35:20;;;;;;;7.13;4.47;;;;;;;;;;5034327;28;20017;-75
2023/04/30 01:38:05;;;;;;;6.65;4.35;;;;;;;;;;5034809;28;20527;-75
2023/04/30 01:40:51;;;;;;;6.47;4.22;;;;;;;;;;5034564;28;20109;-75
2023/04/30 01:43:57;;;;;;;6.68;4.57;;;;;;;;;;5035040;28;20064;-75
2023/04/30 01:46:29;;;;;;;7.75;4.55;;;;;;;;;;5034829;28;20041;-74
2023/04/30 01:49:14;;;;;;;8.27;4.50;;;;;;;;;;5034919;28;20030;-75
2023/04/30 01:51:41;;;;;;;8.07;4.63;;;;;;;;;;5034604;28;20192;-75
2023/04/30 01:54:31;;;;;;;6.32;4.38;;;;;;;;;;5035120;28;20207;-75
2023/04/30 01:57:05;;;;;;;8.45;4.65;;;;;;;;;;5035174;28;20117;-75
2023/04/30 01:59:37;;;;;;;7.97;4.90;;;;;;;;;;5035765;28;20088;-75
2023/04/30 02:02:02;;;;;;;7.30;4.30;;;;;;;;;;5034436;28;20028;-75
2023/04/30 02:04:27;;;;;;;7.15;4.60;;;;;;;;;;5035891;28;20108;-75
2023/04/30 02:06:52;;;;;;;7.87;4.77;;;;;;;;;;5035432;28;20029;-74
2023/04/30 02:09:18;;;;;;;7.33;4.37;;;;;;;;;;5035918;28;20338;-74
2023/04/30 02:11:43;;;;;;;6.63;4.57;;;;;;;;;;5035702;28;20666;-74
2023/04/30 02:14:08;;;;;;;8.87;4.97;;;;;;;;;;5034424;28;20028;-74
2023/04/30 02:16:33;;;;;;;7.40;5.13;;;;;;;;;;5035655;28;20349;-74
2023/04/30 02:18:59;;;;;;;11.15;5.78;;;;;;;;;;5039066;28;20111;-75
2023/04/30 02:21:24;;;;;;;8.63;5.63;;;;;;;;;;5037404;28;20033;-74
2023/04/30 02:23:49;;;;;;;9.38;6.15;;;;;;;;;;5038606;28;20285;-75
2023/04/30 02:26:14;;;;;;;9.70;6.43;;;;;;;;;;5038518;28;20037;-74
2023/04/30 02:28:40;;;;;;;9.63;6.37;;;;;;;;;;5038920;28;20262;-75
2023/04/30 02:31:05;;;;;;;12.55;6.53;;;;;;;;;;5036818;28;20259;-75
2023/04/30 02:33:30;;;;;;;8.20;6.18;;;;;;;;;;5038735;28;20033;-74
2023/04/30 02:35:58;;;;;;;12.43;6.55;;;;;;;;;;5037964;28;20029;-74
2023/04/30 02:38:23;;;;;;;10.95;6.13;;;;;;;;;;5036515;28;20507;-74
2023/04/30 02:40:49;;;;;;;7.63;6.03;;;;;;;;;;5036428;28;20029;-74
2023/04/30 02:43:14;;;;;;;9.50;5.85;;;;;;;;;;5037781;28;20330;-74
2023/04/30 02:45:40;;;;;;;8.20;5.32;;;;;;;;;;5037763;28;20076;-74
2023/04/30 02:48:05;;;;;;;7.78;5.35;;;;;;;;;;5037885;28;20030;-74
2023/04/30 02:50:30;;;;;;;8.65;5.72;;;;;;;;;;5036305;28;20048;-74
2023/04/30 02:52:56;;;;;;;10.80;5.63;;;;;;;;;;5037718;28;20029;-74
2023/04/30 02:55:21;;;;;;;7.85;5.57;;;;;;;;;;5037610;28;20265;-74
2023/04/30 02:57:46;;;;;;;8.48;5.32;;;;;;;;;;5037548;28;20025;-74
2023/04/30 03:00:12;;;;;;;6.97;5.28;;;;;;;;;;5037144;28;20025;-74
2023/04/30 03:02:37;;;;;;;8.13;4.88;;;;;;;;;;5037204;28;20180;-74
2023/04/30 03:05:03;;;;;;;9.52;4.80;;;;;;;;;;5037060;28;20017;-74
2023/04/30 03:07:28;;;;;;;9.02;4.95;;;;;;;;;;5037017;28;20037;-74
2023/04/30 03:09:53;;;;;;;8.15;5.03;;;;;;;;;;5037010;28;20056;-74
2023/04/30 03:12:18;;;;;;;8.20;5.10;;;;;;;;;;5036188;28;20588;-74
2023/04/30 03:14:44;;;;;;;9.27;5.20;;;;;;;;;;5037686;28;20741;-74
2023/04/30 03:17:09;;;;;;;9.67;4.53;;;;;;;;;;5036995;28;20807;-75
2023/04/30 03:19:34;;;;;;;7.70;4.60;;;;;;;;;;5036631;28;20751;-74
2023/04/30 03:21:59;;;;;;;9.27;4.43;;;;;;;;;;5036354;28;20056;-74
2023/04/30 03:24:25;;;;;;;5.97;4.30;;;;;;;;;;5036452;28;20037;-74
2023/04/30 03:26:50;;;;;;;8.90;4.63;;;;;;;;;;5036244;28;20029;-74
2023/04/30 03:29:16;;;;;;;5.47;3.97;;;;;;;;;;5036372;28;20025;-74
2023/04/30 03:31:41;;;;;;;10.52;4.40;;;;;;;;;;5035424;28;20021;-74
2023/04/30 03:34:06;;;;;;;6.40;3.55;;;;;;;;;;5036646;28;20021;-74
2023/04/30 03:36:32;;;;;;;5.68;4.00;;;;;;;;;;5035267;28;20033;-75
2023/04/30 03:38:57;;;;;;;8.50;3.78;;;;;;;;;;5036159;28;20029;-74
2023/04/30 03:41:23;;;;;;;7.07;3.70;;;;;;;;;;5036690;28;20025;-74
2023/04/30 03:43:48;;;;;;;6.18;3.92;;;;;;;;;;5036411;28;20271;-75
2023/04/30 03:46:13;;;;;;;7.13;3.63;;;;;;;;;;5035190;28;20026;-74
2023/04/30 03:48:38;;;;;;;7.20;3.60;;;;;;;;;;5036139;28;20025;-74
2023/04/30 03:51:04;;;;;;;6.17;3.27;;;;;;;;;;5035926;28;20397;-74
2023/04/30 03:53:29;;;;;;;5.43;3.40;;;;;;;;;;5036087;28;20290;-74
2023/04/30 03:55:57;;;;;;;4.72;3.25;;;;;;;;;;5036233;28;20021;-75
2023/04/30 03:58:22;;;;;;;6.50;3.20;;;;;;;;;;5035135;28;20040;-75
2023/04/30 04:00:48;;;;;;;4.53;3.30;;;;;;;;;;5036399;28;20029;-74
2023/04/30 04:03:16;;;;;;;6.55;3.65;;;;;;;;;;5035706;28;20075;-74
2023/04/30 04:05:42;;;;;;;5.28;3.20;;;;;;;;;;5035787;28;20497;-74
2023/04/30 04:08:07;;;;;;;5.35;2.65;;;;;;;;;;5035590;28;20087;-74
2023/04/30 04:10:33;;;;;;;5.93;3.15;;;;;;;;;;5035986;28;20037;-75
2023/04/30 04:12:59;;;;;;;5.05;3.22;;;;;;;;;;5035448;28;20029;-75
2023/04/30 04:15:24;;;;;;;5.80;3.28;;;;;;;;;;5035814;28;20053;-73
2023/04/30 04:17:50;;;;;;;4.50;3.17;;;;;;;;;;5035448;28;20033;-74
2023/04/30 04:20:15;;;;;;;7.13;3.30;;;;;;;;;;5035845;28;20274;-74
2023/04/30 04:22:40;;;;;;;7.78;3.28;;;;;;;;;;5035775;28;20021;-74
2023/04/30 04:25:06;;;;;;;5.40;3.35;;;;;;;;;;5035716;28;20030;-74
2023/04/30 04:27:31;;;;;;;5.28;3.20;;;;;;;;;;5033770;28;20119;-74
2023/04/30 04:29:56;;;;;;;5.13;3.08;;;;;;;;;;5034411;28;20052;-74
2023/04/30 04:32:22;;;;;;;5.97;3.10;;;;;;;;;;5034532;28;20501;-75
2023/04/30 04:34:48;;;;;;;7.85;3.33;;;;;;;;;;5035902;28;20030;-75
2023/04/30 04:37:14;;;;;;;5.60;3.53;;;;;;;;;;5035330;28;20021;-75
2023/04/30 04:39:39;;;;;;;4.47;3.15;;;;;;;;;;5035405;28;20080;-75
2023/04/30 04:42:04;;;;;;;5.50;3.00;;;;;;;;;;5033935;28;20400;-75
2023/04/30 04:44:29;;;;;;;6.67;3.00;;;;;;;;;;5033994;28;20619;-75
2023/04/30 04:46:55;;;;;;;5.47;3.15;;;;;;;;;;5035250;28;20888;-74
2023/04/30 04:49:20;;;;;;;5.43;2.88;;;;;;;;;;5035439;28;20025;-74
2023/04/30 04:51:46;;;;;;;7.07;3.20;;;;;;;;;;5035477;28;20036;-74
2023/04/30 04:54:11;;;;;;;6.50;3.00;;;;;;;;;;5035211;28;20029;-75
2023/04/30 04:56:36;;;;;;;5.47;2.80;;;;;;;;;;5035055;28;20033;-74
2023/04/30 04:59:01;;;;;;;6.47;3.37;;;;;;;;;;5035215;28;20404;-74
2023/04/30 05:01:28;;;;;;;5.27;2.90;;;;;;;;;;5035085;28;20294;-75
2023/04/30 05:03:53;;;;;;;5.15;3.00;;;;;;;;;;5034983;28;20281;-74
2023/04/30 05:06:19;;;;;;;9.02;2.97;;;;;;;;;;5034872;28;20084;-75
2023/04/30 05:08:44;;;;;;;3.67;2.97;;;;;;;;;;5035026;28;20397;-75
2023/04/30 05:11:09;;;;;;;5.87;3.20;;;;;;;;;;5035355;28;20477;-75
2023/04/30 05:13:35;;;;;;;4.88;3.10;;;;;;;;;;5034552;28;20733;-75
2023/04/30 05:16:00;;;;;;;7.60;3.40;;;;;;;;;;5033211;28;20060;-74
2023/04/30 05:18:25;;;;;;;6.17;3.00;;;;;;;;;;5034772;28;20025;-75
2023/04/30 05:20:50;;;;;;;6.20;2.93;;;;;;;;;;5035032;28;20257;-75
2023/04/30 05:23:15;;;;;;;7.90;2.60;;;;;;;;;;5034315;28;20258;-75
2023/04/30 05:25:41;;;;;;;7.47;3.07;;;;;;;;;;5034535;28;20274;-75
2023/04/30 05:28:06;;;;;;;4.50;2.90;;;;;;;;;;5034348;28;20266;-75
2023/04/30 05:30:31;;;;;;;5.33;3.13;;;;;;;;;;5034286;28;20254;-75
2023/04/30 05:32:57;;;;;;;5.35;3.10;;;;;;;;;;5035207;28;20290;-75
2023/04/30 05:35:22;;;;;;;5.05;2.75;;;;;;;;;;5034664;28;20500;-75
2023/04/30 05:37:47;;;;;;;4.65;2.75;;;;;;;;;;5033129;28;20040;-76
2023/04/30 05:40:13;;;;;;;5.95;2.85;;;;;;;;;;5034649;28;20029;-75
2023/04/30 05:42:39;;;;;;;7.43;2.70;;;;;;;;;;5034694;28;20029;-75
2023/04/30 05:45:05;;;;;;;5.68;2.85;;;;;;;;;;5033872;28;20057;-74
2023/04/30 05:47:31;;;;;;;5.18;2.78;;;;;;;;;;5034818;28;20037;-74
2023/04/30 05:49:56;;;;;;;5.68;2.85;;;;;;;;;;5035700;28;20465;-74
2023/04/30 05:52:22;;;;;;;4.40;2.83;;;;;;;;;;5038642;28;20033;-74
2023/04/30 05:54:47;;;;;;;8.20;2.97;;;;;;;;;;5040574;28;20025;-75
2023/04/30 05:57:12;;;;;;;7.10;3.17;;;;;;;;;;5040009;28;20025;-75
2023/04/30 05:59:38;;;;;;;4.72;2.85;;;;;;;;;;5038692;28;20029;-75
2023/04/30 06:02:03;;;;;;;4.95;2.95;;;;;;;;;;5039731;28;20433;-75
2023/04/30 06:04:28;;;;;;;6.90;3.05;;;;;;;;;;5039651;28;20021;-75
2023/04/30 06:06:53;;;;;;;5.50;3.20;;;;;;;;;;5040094;28;20032;-75
2023/04/30 06:09:19;;;;;;;5.20;2.90;;;;;;;;;;5039549;28;20025;-75
2023/04/30 06:11:49;;;;;;;6.18;3.08;;;;;;;;;;5039366;28;20262;-75
2023/04/30 06:14:14;;;;;;;3.95;2.92;;;;;;;;;;5037489;28;20025;-74
2023/04/30 06:16:39;;;;;;;5.68;2.97;;;;;;;;;;5037548;28;20108;-75
2023/04/30 06:19:05;;;;;;;7.10;3.25;;;;;;;;;;5037367;28;20033;-75
2023/04/30 06:21:30;;;;;;;4.37;2.73;;;;;;;;;;5036113;28;20025;-75
2023/04/30 06:23:55;;;;;;;6.20;2.80;;;;;;;;;;5036817;28;20300;-75
2023/04/30 06:26:21;;;;;;;5.60;2.80;;;;;;;;;;5036792;28;20030;-75
2023/04/30 06:28:46;;;;;;;3.58;2.38;;;;;;;;;;5036892;28;20255;-74
2023/04/30 06:31:11;;;;;;;6.45;2.67;;;;;;;;;;5036755;28;20036;-74
2023/04/30 06:33:37;;;;;;;5.65;2.88;;;;;;;;;;5035658;28;20484;-75
2023/04/30 06:36:02;;;;;;;6.97;2.90;;;;;;;;;;5035247;28;20564;-74
2023/04/30 06:38:28;;;;;;;5.38;3.00;;;;;;;;;;5036313;28;20037;-74
2023/04/30 06:40:53;;;;;;;7.30;2.75;;;;;;;;;;5036497;28;20053;-75
2023/04/30 06:43:18;;;;;;;4.70;2.50;;;;;;;;;;5035098;28;20024;-75
2023/04/30 06:45:43;;;;;;;6.72;2.65;;;;;;;;;;5036356;28;20028;-75
2023/04/30 06:48:09;;;;;;;6.30;2.73;;;;;;;;;;5036867;28;20026;-74
2023/04/30 06:50:34;;;;;;;7.63;2.75;;;;;;;;;;5035687;28;20290;-74
2023/04/30 06:52:59;;;;;;;5.38;2.20;;;;;;;;;;5035578;28;20028;-74
2023/04/30 06:55:26;;;;;;;4.95;2.50;;;;;;;;;;5036640;28;20021;-74
2023/04/30 06:57:53;;;;;;;7.18;2.60;;;;;;;;;;5036924;28;20021;-74
2023/04/30 07:00:18;;;;;;;4.47;2.72;;;;;;;;;;5037089;28;20060;-74
2023/04/30 07:02:46;;;;;;;5.55;2.45;;;;;;;;;;5035671;28;20480;-75
2023/04/30 07:05:11;;;;;;;5.20;2.42;;;;;;;;;;5035897;28;20024;-75
2023/04/30 07:07:37;;;;;;;7.40;2.78;;;;;;;;;;5036628;28;20029;-75
2023/04/30 07:10:02;;;;;;;6.85;2.67;;;;;;;;;;5035163;28;20025;-75
2023/04/30 07:12:27;;;;;;;7.93;2.70;;;;;;;;;;5036549;28;20120;-74
2023/04/30 07:14:54;;;;;;;5.87;2.63;;;;;;;;;;5034572;28;20064;-75
2023/04/30 07:17:19;;;;;;;7.80;2.70;;;;;;;;;;5034575;28;20269;-75
2023/04/30 07:19:44;;;;;;;6.95;2.42;;;;;;;;;;5036589;28;20021;-74
2023/04/30 07:22:10;;;;;;;4.55;2.60;;;;;;;;;;5034991;28;20041;-75
2023/04/30 07:24:35;;;;;;;6.35;2.90;;;;;;;;;;5035936;28;20029;-74
2023/04/30 07:27:02;;;;;;;7.57;2.90;;;;;;;;;;5035151;28;20373;-75
2023/04/30 07:29:28;;;;;;;8.90;2.42;;;;;;;;;;5036690;28;20079;-74
2023/04/30 07:31:54;;;;;;;7.28;2.72;;;;;;;;;;5037056;28;20029;-75
2023/04/30 07:34:19;;;;;;;6.85;2.72;;;;;;;;;;5036837;28;20076;-75
2023/04/30 07:36:44;;;;;;;6.03;2.53;;;;;;;;;;5034958;28;20034;-75
2023/04/30 07:39:10;;;;;;;5.13;2.80;;;;;;;;;;5036857;28;20025;-75
2023/04/30 07:41:35;;;;;;;4.18;2.42;;;;;;;;;;5036160;28;20042;-75
2023/04/30 07:44:01;;;;;;;5.37;2.63;;;;;;;;;;5034622;28;20048;-74
2023/04/30 07:46:26;;;;;;;7.28;2.85;;;;;;;;;;5036189;28;20254;-74
2023/04/30 07:48:51;;;;;;;5.77;2.80;;;;;;;;;;5035713;28;20068;-76
2023/04/30 07:51:16;;;;;;;5.20;2.50;;;;;;;;;;5035810;28;20286;-76
2023/04/30 07:53:42;;;;;;;6.28;2.75;;;;;;;;;;5035685;28;20501;-74
2023/04/30 07:56:07;;;;;;;4.40;2.13;;;;;;;;;;5035319;28;20044;-75
2023/04/30 07:58:33;;;;;;;3.70;2.47;;;;;;;;;;5035733;28;20262;-74
2023/04/30 08:00:58;;;;;;;5.13;2.50;;;;;;;;;;5036107;28;20033;-75
2023/04/30 08:03:23;;;;;;;6.70;2.63;;;;;;;;;;5035565;28;20442;-73
2023/04/30 08:05:48;;;;;;;5.80;2.63;;;;;;;;;;5035175;28;20740;-74
2023/04/30 08:08:13;;;;;;;6.13;2.55;;;;;;;;;;5035000;28;20745;-74
2023/04/30 08:10:40;;;;;;;11.52;2.67;;;;;;;;;;5033972;28;20116;-75
2023/04/30 08:13:06;;;;;;;6.18;2.95;;;;;;;;;;5034758;28;20078;-74
2023/04/30 08:15:32;;;;;;;7.50;2.95;;;;;;;;;;5034834;28;20017;-74
2023/04/30 08:17:58;;;;;;;6.88;2.50;;;;;;;;;;5035565;28;20033;-74
2023/04/30 08:20:25;;;;;;;3.72;2.20;;;;;;;;;;5033848;28;20076;-74
2023/04/30 08:22:50;;;;;;;8.05;2.80;;;;;;;;;;5033095;28;20484;-74
2023/04/30 08:25:16;;;;;;;6.10;2.60;;;;;;;;;;5034379;28;20026;-74
2023/04/30 08:27:41;;;;;;;4.50;2.58;;;;;;;;;;5034191;28;20480;-74
2023/04/30 08:30:07;;;;;;;6.43;2.72;;;;;;;;;;5034552;28;20496;-74
2023/04/30 08:32:36;;;;;;;5.25;2.47;;;;;;;;;;5034552;28;20037;-75
2023/04/30 08:35:05;;;;;;;5.45;2.67;;;;;;;;;;5034720;28;20032;-75
2023/04/30 08:37:30;;;;;;;8.80;2.70;;;;;;;;;;5033946;28;20032;-75
2023/04/30 08:39:55;;;;;;;5.22;2.35;;;;;;;;;;5034197;28;20388;-75
2023/04/30 08:42:24;;;;;;;4.90;2.40;;;;;;;;;;5034252;28;20128;-75
2023/04/30 08:44:49;;;;;;;9.73;2.60;;;;;;;;;;5032895;28;20476;-74
2023/04/30 08:47:16;;;;;;;5.40;2.57;;;;;;;;;;5034245;28;20033;-74
2023/04/30 08:49:42;;;;;;;9.95;2.95;;;;;;;;;;5033385;28;20254;-74
2023/04/30 08:52:08;;;;;;;3.20;2.17;;;;;;;;;;5034803;28;20035;-74
2023/04/30 08:54:35;;;;;;;13.25;2.63;;;;;;;;;;5034217;28;20097;-75
2023/04/30 08:57:01;;;;;;;5.75;2.30;;;;;;;;;;5033914;28;20397;-75
2023/04/30 08:59:26;;;;;;;7.22;2.70;;;;;;;;;;5034431;28;20056;-75
2023/04/30 09:01:52;;;;;;;7.72;2.38;;;;;;;;;;5034113;28;20485;-75
2023/04/30 09:04:17;;;;;;;5.87;2.60;;;;;;;;;;5033515;28;20017;-75
2023/04/30 09:06:42;;;;;;;6.28;2.45;;;;;;;;;;5032639;28;20266;-75
2023/04/30 09:09:12;;;;;;;8.23;2.78;;;;;;;;;;5034040;28;20043;-75
2023/04/30 09:11:38;;;;;;;4.53;2.30;;;;;;;;;;5034053;28;20037;-75
2023/04/30 09:14:03;;;;;;;6.15;2.47;;;;;;;;;;5033788;28;20409;-74
2023/04/30 09:16:42;;;;;;;5.10;2.25;;;;;;;;;;5034509;28;20064;-75
2023/04/30 09:19:09;;;;;;;7.38;2.42;;;;;;;;;;5035776;28;20033;-74
2023/04/30 09:21:35;;;;;;;4.38;2.30;;;;;;;;;;5034257;28;20033;-74
2023/04/30 09:24:04;;;;;;;4.57;2.17;;;;;;;;;;5034525;28;20124;-77
2023/04/30 09:26:33;;;;;;;7.13;2.55;;;;;;;;;;5033980;28;20053;-72
2023/04/30 09:28:59;;;;;;;4.80;2.40;;;;;;;;;;5035654;28;20017;-75
2023/04/30 09:31:25;;;;;;;7.38;2.45;;;;;;;;;;5036297;28;20079;-73
2023/04/30 09:33:51;;;;;;;5.18;2.00;;;;;;;;;;5034656;28;20485;-74
2023/04/30 09:36:19;;;;;;;6.15;2.05;;;;;;;;;;5033177;28;20031;-73
2023/04/30 09:38:45;;;;;;;4.78;2.13;;;;;;;;;;5034384;28;20025;-74
2023/04/30 09:41:27;;;;;;;9.20;2.50;;;;;;;;;;5034260;28;20106;-74
2023/04/30 09:43:56;;;;;;;4.82;2.00;;;;;;;;;;5033500;28;20036;-73
2023/04/30 09:46:32;;;;;;;4.28;1.95;;;;;;;;;;5033995;28;20036;-74
2023/04/30 09:48:59;;;;;;;2.97;2.08;;;;;;;;;;5033017;28;20094;-77
2023/04/30 09:51:25;;;;;;;6.72;2.40;;;;;;;;;;5034351;28;20025;-73
2023/04/30 09:53:51;;;;;;;5.65;2.17;;;;;;;;;;5034635;28;20028;-74
2023/04/30 09:56:21;;;;;;;4.65;2.22;;;;;;;;;;5033827;28;20025;-74
2023/04/30 09:58:50;;;;;;;6.03;2.35;;;;;;;;;;5033716;28;20021;-73
2023/04/30 10:01:16;;;;;;;4.72;2.33;;;;;;;;;;5034812;28;20496;-74
2023/04/30 10:03:42;;;;;;;5.45;2.38;;;;;;;;;;5035043;28;20029;-73
2023/04/30 10:06:11;;;;;;;7.30;2.13;;;;;;;;;;5035071;28;20049;-74
2023/04/30 10:08:42;;;;;;;8.07;2.40;;;;;;;;;;5034326;28;20030;-73
2023/04/30 10:11:15;;;;;;;5.25;2.20;;;;;;;;;;5033843;28;20124;-74
2023/04/30 10:13:54;;;;;;;5.95;2.25;;;;;;;;;;5034875;28;20365;-74
2023/04/30 10:16:39;;;;;;;4.10;2.10;;;;;;;;;;5033468;28;20025;-74
2023/04/30 10:19:09;;;;;;;6.57;2.00;;;;;;;;;;5035557;28;20018;-74
2023/04/30 10:21:37;;;;;;;5.57;2.20;;;;;;;;;;5035883;28;20033;-72
2023/04/30 10:24:03;;;;;;;11.73;3.03;;;;;;;;;;5036274;28;20170;-73
2023/04/30 10:26:29;;;;;;;5.07;1.98;;;;;;;;;;5037406;28;20021;-74
2023/04/30 10:28:57;;;;;;;6.18;2.20;;;;;;;;;;5039018;28;20112;-73
2023/04/30 10:31:23;;;;;;;6.45;2.30;;;;;;;;;;5040528;28;20026;-73
2023/04/30 10:34:04;;;;;;;4.95;2.30;;;;;;;;;;5040553;28;20437;-73
2023/04/30 10:36:44;;;;;;;6.25;2.35;;;;;;;;;;5041357;28;20458;-73
2023/04/30 10:39:11;;;;;;;5.60;2.28;;;;;;;;;;5043301;28;20033;-73
2023/04/30 10:41:36;;;;;;;9.43;2.50;;;;;;;;;;5043904;28;20028;-74
2023/04/30 10:44:04;;;;;;;4.07;2.08;;;;;;;;;;5044397;28;20026;-74
2023/04/30 10:46:29;;;;;;;4.38;2.05;;;;;;;;;;5042602;28;20025;-74
2023/04/30 10:48:55;;;;;;;7.45;2.33;;;;;;;;;;5042884;28;20025;-73
2023/04/30 10:51:43;;;;;;;4.20;2.53;;;;;;;;;;5041294;28;20090;-76
2023/04/30 10:54:09;;;;;;;5.80;1.95;;;;;;;;;;5036894;28;20522;-79
2023/04/30 10:56:35;;;;;;;7.25;2.65;;;;;;;;;;5036625;28;20045;-76
2023/04/30 10:59:01;;;;;;;4.32;2.22;;;;;;;;;;5039235;28;20022;-75
2023/04/30 11:01:27;;;;;;;7.70;2.10;;;;;;;;;;5038068;28;20179;-75
2023/04/30 11:04:10;;;;;;;10.10;2.13;;;;;;;;;;5036959;28;20105;-76
2023/04/30 11:07:02;;;;;;;10.15;2.60;;;;;;;;;;5036740;28;20053;-75
2023/04/30 11:09:44;;;;;;;8.23;2.28;;;;;;;;;;5036091;28;20030;-75
2023/04/30 11:12:11;;;;;;;4.20;2.10;;;;;;;;;;5036021;28;20117;-74
2023/04/30 11:14:41;;;;;;;4.65;2.20;;;;;;;;;;5036645;28;20032;-75
2023/04/30 11:17:06;;;;;;;7.93;2.20;;;;;;;;;;5036361;28;20037;-75
2023/04/30 11:19:33;;;;;;;3.90;2.17;;;;;;;;;;5036359;28;20025;-74
2023/04/30 11:22:04;;;;;;;5.25;2.10;;;;;;;;;;5036635;28;20032;-75
2023/04/30 11:24:49;;;;;;;6.60;1.92;;;;;;;;;;5035133;28;20064;-74
2023/04/30 11:27:19;;;;;;;4.60;1.75;;;;;;;;;;5034701;28;20032;-75
2023/04/30 11:29:46;;;;;;;4.50;1.95;;;;;;;;;;5036598;28;20025;-74
2023/04/30 11:32:11;;;;;;;6.18;2.10;;;;;;;;;;5036206;28;20026;-75
2023/04/30 11:34:37;;;;;;;4.40;2.20;;;;;;;;;;5036607;28;20116;-74
2023/04/30 11:37:02;;;;;;;5.43;2.10;;;;;;;;;;5037016;28;20040;-74
2023/04/30 11:39:28;;;;;;;7.32;2.10;;;;;;;;;;5037498;28;20076;-75
2023/04/30 11:41:54;;;;;;;4.53;2.10;;;;;;;;;;5036786;28;20096;-75
2023/04/30 11:44:26;;;;;;;4.70;2.00;;;;;;;;;;5036396;28;20065;-75
2023/04/30 11:46:52;;;;;;;4.20;1.83;;;;;;;;;;5034973;28;20429;-75
2023/04/30 11:49:19;;;;;;;3.33;1.65;;;;;;;;;;5036355;28;20037;-75
2023/04/30 11:51:51;;;;;;;3.63;1.80;;;;;;;;;;5037175;28;20032;-75
2023/04/30 11:54:17;;;;;;;5.45;1.90;;;;;;;;;;5037069;28;20028;-75
2023/04/30 11:56:49;;;;;;;5.32;1.80;;;;;;;;;;5035653;28;20028;-75
2023/04/30 11:59:16;;;;;;;6.47;1.85;;;;;;;;;;5035014;28;20032;-75
2023/04/30 12:01:42;;;;;;;4.30;1.80;;;;;;;;;;5036640;28;20036;-75
2023/04/30 12:04:07;;;;;;;3.40;1.85;;;;;;;;;;5036395;28;20024;-74
2023/04/30 12:06:34;;;;;;;3.95;1.95;;;;;;;;;;5035594;28;20401;-75
2023/04/30 12:09:00;;;;;;;6.65;1.80;;;;;;;;;;5036395;28;20124;-75
2023/04/30 12:11:27;;;;;;;3.95;1.90;;;;;;;;;;5035859;28;20551;-75
2023/04/30 12:13:59;;;;;;;4.20;2.10;;;;;;;;;;5037227;28;20029;-75
2023/04/30 12:16:27;;;;;;;6.50;2.53;;;;;;;;;;5037552;28;20530;-74
2023/04/30 12:18:52;;;;;;;7.25;1.90;;;;;;;;;;5036730;28;20040;-74
2023/04/30 12:21:19;;;;;;;3.17;1.77;;;;;;;;;;5036617;28;20133;-75
2023/04/30 12:23:45;;;;;;;6.30;1.90;;;;;;;;;;5036894;28;20515;-75
2023/04/30 12:26:10;;;;;;;6.03;1.95;;;;;;;;;;5036710;28;20029;-74
2023/04/30 12:28:35;;;;;;;3.63;1.70;;;;;;;;;;5035233;28;20025;-74
2023/04/30 12:31:01;;;;;;;5.90;1.90;;;;;;;;;;5036901;28;20258;-75
2023/04/30 12:33:29;;;;;;;4.60;1.80;;;;;;;;;;5036568;28;20101;-74
2023/04/30 12:35:58;;;;;;;3.80;1.90;;;;;;;;;;5035496;28;20112;-75
2023/04/30 12:38:24;;;;;;;4.82;2.03;;;;;;;;;;5037182;28;20032;-75
2023/04/30 12:40:49;;;;;;;6.00;1.77;;;;;;;;;;5037434;28;20397;-74
2023/04/30 12:43:16;;;;;;;2.75;1.60;;;;;;;;;;5037282;28;20021;-74
2023/04/30 12:45:54;;;;;;;3.83;1.60;;;;;;;;;;5034803;28;20022;-74
2023/04/30 12:48:22;;;;;;;4.18;1.50;;;;;;;;;;5034950;28;20382;-75
2023/04/30 12:50:53;;;;;;;3.00;1.73;;;;;;;;;;5035099;28;20097;-74
2023/04/30 12:53:18;;;;;;;5.72;1.92;;;;;;;;;;5036670;28;20029;-74
2023/04/30 12:56:14;;;;;;;3.90;1.70;;;;;;;;;;5034564;28;20365;-75
2023/04/30 12:58:41;;;;;;;4.40;1.77;;;;;;;;;;5036444;28;20060;-74
2023/04/30 13:01:11;;;;;;;4.28;1.75;;;;;;;;;;5033726;28;20036;-74
2023/04/30 13:03:36;;;;;;;4.38;1.80;;;;;;;;;;5035907;28;20045;-75
2023/04/30 13:06:03;;;;;;;5.67;1.60;;;;;;;;;;5035615;28;20048;-74
2023/04/30 13:08:28;;;;;;;3.63;1.77;;;;;;;;;;5036228;28;20250;-74
2023/04/30 13:10:54;;;;;;;5.53;1.67;;;;;;;;;;5034469;28;20025;-80
2023/04/30 13:13:20;;;;;;;6.60;1.67;;;;;;;;;;5036494;28;20401;-73
2023/04/30 13:15:45;;;;;;;6.65;1.98;;;;;;;;;;5035646;28;20021;-75
2023/04/30 13:18:10;;;;;;;2.90;1.50;;;;;;;;;;5036301;28;20025;-74
2023/04/30 13:20:36;;;;;;;5.72;1.70;;;;;;;;;;5035667;28;20032;-75
2023/04/30 13:23:02;;;;;;;3.72;1.50;;;;;;;;;;5035062;28;20112;-75
2023/04/30 13:25:28;;;;;;;9.35;1.75;;;;;;;;;;5034774;28;20029;-74
2023/04/30 13:27:54;;;;;;;3.35;1.38;;;;;;;;;;5035595;28;20029;-74
2023/04/30 13:30:19;;;;;;;3.25;1.60;;;;;;;;;;5035230;28;20411;-75
2023/04/30 13:32:45;;;;;;;5.00;1.70;;;;;;;;;;5035977;28;20053;-75
2023/04/30 13:35:11;;;;;;;2.38;1.30;;;;;;;;;;5035852;28;20270;-75
2023/04/30 13:37:37;;;;;;;3.90;1.20;;;;;;;;;;5034849;28;20092;-75
2023/04/30 13:40:04;;;;;;;5.13;1.48;;;;;;;;;;5035539;28;20105;-74
2023/04/30 13:42:29;;;;;;;3.65;1.50;;;;;;;;;;5035078;28;20043;-74
2023/04/30 13:44:54;;;;;;;5.10;1.60;;;;;;;;;;5035300;28;20029;-73
2023/04/30 13:47:20;;;;;;;4.65;1.45;;;;;;;;;;5033695;28;20095;-73
2023/04/30 13:49:45;;;;;;;2.70;1.42;;;;;;;;;;5033394;28;20025;-75
2023/04/30 13:52:11;;;;;;;3.25;1.50;;;;;;;;;;5035207;28;20029;-75
2023/04/30 13:54:37;;;;;;;5.95;1.42;;;;;;;;;;5033336;28;20021;-78
2023/04/30 13:57:03;;;;;;;2.67;1.60;;;;;;;;;;5033135;28;20048;-77
2023/04/30 13:59:28;;;;;;;2.83;1.40;;;;;;;;;;5031719;28;20017;-77
2023/04/30 14:01:53;;;;;;;4.75;1.60;;;;;;;;;;5032817;28;20056;-77
2023/04/30 14:04:19;;;;;;;3.72;1.42;;;;;;;;;;5031551;28;20035;-77
2023/04/30 14:06:44;;;;;;;2.55;1.33;;;;;;;;;;5032331;28;20175;-77
2023/04/30 14:09:10;;;;;;;4.05;1.40;;;;;;;;;;5033749;28;20025;-76
2023/04/30 14:11:35;;;;;;;3.10;1.40;;;;;;;;;;5033175;28;20026;-77
2023/04/30 14:14:00;;;;;;;3.03;1.40;;;;;;;;;;5036987;28;20439;-76
2023/04/30 14:16:26;;;;;;;7.18;1.70;;;;;;;;;;5035465;28;20477;-76
2023/04/30 14:18:51;;;;;;;4.25;1.52;;;;;;;;;;5035959;28;20031;-78
2023/04/30 14:21:16;;;;;;;2.80;1.40;;;;;;;;;;5037090;28;20141;-76
2023/04/30 14:23:44;;;;;;;4.07;1.33;;;;;;;;;;5035658;28;20396;-76
2023/04/30 14:26:10;;;;;;;1.92;1.30;;;;;;;;;;5039018;28;20788;-76
2023/04/30 14:28:35;;;;;;;3.72;1.40;;;;;;;;;;5037210;28;20033;-75
2023/04/30 14:31:00;;;;;;;2.77;1.20;;;;;;;;;;5036992;28;20498;-76
2023/04/30 14:33:25;;;;;;;2.15;1.33;;;;;;;;;;5036364;28;20671;-77
2023/04/30 14:35:51;;;;;;;2.90;1.37;;;;;;;;;;5036659;28;20097;-76
2023/04/30 14:38:16;;;;;;;2.10;1.10;;;;;;;;;;5036467;28;20333;-77
2023/04/30 14:40:42;;;;;;;2.63;1.20;;;;;;;;;;5036433;28;20370;-76